createdAt,value
2022-11-06T00:00:01.138Z,8.86
2022-11-06T00:02:28.876Z,8.84
2022-11-06T00:05:16.491Z,8.84
2022-11-06T00:07:43.134Z,8.82
2022-11-06T00:10:10.704Z,8.81
2022-11-06T00:12:40.077Z,8.81
2022-11-06T00:15:07.696Z,8.80
2022-11-06T00:17:35.260Z,8.82
2022-11-06T00:20:03.147Z,8.84
2022-11-06T00:22:30.790Z,8.84
2022-11-06T00:24:58.343Z,8.88
2022-11-06T00:27:25.896Z,8.93
2022-11-06T00:29:53.451Z,8.99
2022-11-06T00:32:21.053Z,9.05
2022-11-06T00:34:48.948Z,9.12
2022-11-06T00:37:17.580Z,9.16
2022-11-06T00:39:45.144Z,9.22
2022-11-06T00:42:12.699Z,9.26
2022-11-06T00:44:40.260Z,9.29
2022-11-06T00:47:08.213Z,9.32
2022-11-06T00:49:35.780Z,9.35
2022-11-06T00:52:03.411Z,9.36
2022-11-06T00:54:30.994Z,9.38
2022-11-06T00:56:58.550Z,9.40
2022-11-06T00:59:26.488Z,9.42
2022-11-06T01:01:54.164Z,9.44
2022-11-06T01:04:22.321Z,9.44
2022-11-06T01:06:49.906Z,9.44
2022-11-06T01:09:17.471Z,9.43
2022-11-06T01:12:12.922Z,9.41
2022-11-06T01:14:34.838Z,9.36
2022-11-06T01:17:02.352Z,9.31
2022-11-06T01:19:29.909Z,9.26
2022-11-06T01:21:57.845Z,9.21
2022-11-06T01:24:25.970Z,9.14
2022-11-06T01:27:24.929Z,9.12
2022-11-06T01:29:43.773Z,9.09
2022-11-06T01:32:11.721Z,9.06
2022-11-06T01:34:39.254Z,9.04
2022-11-06T01:37:09.191Z,9.00
2022-11-06T01:39:40.726Z,8.98
2022-11-06T01:42:08.314Z,8.97
2022-11-06T01:44:36.669Z,8.96
2022-11-06T01:47:04.195Z,8.95
2022-11-06T01:49:34.240Z,8.94
2022-11-06T01:52:01.815Z,8.91
2022-11-06T01:54:29.356Z,8.88
2022-11-06T01:56:57.298Z,8.85
2022-11-06T01:59:24.824Z,8.84
2022-11-06T02:01:53.738Z,8.83
2022-11-06T02:04:21.374Z,8.80
2022-11-06T02:06:49.310Z,8.78
2022-11-06T02:09:17.237Z,8.76
2022-11-06T02:11:44.839Z,8.73
2022-11-06T02:14:14.521Z,8.72
2022-11-06T02:16:42.036Z,8.69
2022-11-06T02:19:09.651Z,8.67
2022-11-06T02:21:37.587Z,8.65
2022-11-06T02:24:05.127Z,8.65
2022-11-06T02:26:32.714Z,8.64
2022-11-06T02:29:00.768Z,8.63
2022-11-06T02:31:28.424Z,8.64
2022-11-06T02:33:56.041Z,8.64
2022-11-06T02:36:23.587Z,8.63
2022-11-06T02:38:53.262Z,8.63
2022-11-06T02:41:20.863Z,8.63
2022-11-06T02:43:48.441Z,8.63
2022-11-06T02:46:16.369Z,8.62
2022-11-06T02:48:43.918Z,8.62
2022-11-06T02:51:11.784Z,8.65
2022-11-06T02:53:40.346Z,8.69
2022-11-06T02:56:07.923Z,8.72
2022-11-06T02:58:38.826Z,8.75
2022-11-06T03:01:06.678Z,8.75
2022-11-06T03:03:35.595Z,8.74
2022-11-06T03:06:03.186Z,8.70
2022-11-06T03:08:31.591Z,8.69
2022-11-06T03:10:59.594Z,8.67
2022-11-06T03:13:27.483Z,8.63
2022-11-06T03:15:55.045Z,8.63
2022-11-06T03:18:22.655Z,8.62
2022-11-06T03:20:50.199Z,8.62
2022-11-06T03:23:18.147Z,8.61
2022-11-06T03:25:45.746Z,8.60
2022-11-06T03:28:14.809Z,8.58
2022-11-06T03:30:42.941Z,8.58
2022-11-06T03:33:10.548Z,8.57
2022-11-06T03:35:38.887Z,8.54
2022-11-06T03:38:06.448Z,8.54
2022-11-06T03:40:34.247Z,8.55
2022-11-06T03:43:01.833Z,8.56
2022-11-06T03:45:29.421Z,8.54
2022-11-06T03:47:57.351Z,8.55
2022-11-06T03:50:24.914Z,8.58
2022-11-06T03:52:54.227Z,8.59
2022-11-06T03:55:21.820Z,8.61
2022-11-06T03:57:49.721Z,8.62
2022-11-06T04:03:27.064Z,8.67
2022-11-06T04:05:54.618Z,8.69
2022-11-06T04:08:39.440Z,8.70
2022-11-06T04:11:23.537Z,8.70
2022-11-06T04:14:02.321Z,8.70
2022-11-06T04:16:29.853Z,8.69
2022-11-06T04:18:57.824Z,8.69
2022-11-06T04:21:26.238Z,8.67
2022-11-06T04:24:14.145Z,8.68
2022-11-06T04:26:40.676Z,8.65
2022-11-06T04:29:08.270Z,8.64
2022-11-06T04:31:35.789Z,8.64
2022-11-06T04:34:03.358Z,8.62
2022-11-06T04:36:31.309Z,8.62
2022-11-06T04:38:58.866Z,8.62
2022-11-06T04:41:26.457Z,8.62
2022-11-06T04:43:53.985Z,8.63
2022-11-06T04:46:21.772Z,8.64
2022-11-06T04:48:49.363Z,8.63
2022-11-06T04:51:16.905Z,8.62
2022-11-06T04:53:45.118Z,8.63
2022-11-06T04:56:12.685Z,8.63
2022-11-06T04:58:40.234Z,8.62
2022-11-06T05:01:08.212Z,8.62
2022-11-06T05:03:35.822Z,8.62
2022-11-06T05:06:03.522Z,8.63
2022-11-06T05:08:31.100Z,8.64
2022-11-06T05:10:58.683Z,8.63
2022-11-06T05:13:26.637Z,8.62
2022-11-06T05:15:54.171Z,8.60
2022-11-06T05:18:22.968Z,8.59
2022-11-06T05:21:10.887Z,8.60
2022-11-06T05:23:39.282Z,8.61
2022-11-06T05:26:06.827Z,8.61
2022-11-06T05:28:35.259Z,8.62
2022-11-06T05:31:02.914Z,8.61
2022-11-06T05:33:31.116Z,8.61
2022-11-06T05:35:59.325Z,8.63
2022-11-06T05:38:26.908Z,8.67
2022-11-06T05:40:54.634Z,8.68
2022-11-06T05:43:22.566Z,8.70
2022-11-06T05:45:50.146Z,8.71
2022-11-06T05:48:17.685Z,8.70
2022-11-06T05:50:45.200Z,8.69
2022-11-06T05:53:12.811Z,8.67
2022-11-06T05:55:40.369Z,8.65
2022-11-06T05:58:07.924Z,8.64
2022-11-06T06:00:35.533Z,8.62
2022-11-06T06:03:03.162Z,8.59
2022-11-06T06:05:31.150Z,8.57
2022-11-06T06:07:58.762Z,8.55
2022-11-06T06:10:26.328Z,8.54
2022-11-06T06:12:54.100Z,8.54
2022-11-06T06:15:21.669Z,8.55
2022-11-06T06:17:49.242Z,8.57
2022-11-06T06:20:16.807Z,8.57
2022-11-06T06:22:44.732Z,8.58
2022-11-06T06:25:22.447Z,8.58
2022-11-06T06:27:50.789Z,8.59
2022-11-06T06:30:18.356Z,8.58
2022-11-06T06:32:45.903Z,8.59
2022-11-06T06:35:13.861Z,8.62
2022-11-06T06:37:41.399Z,8.63
2022-11-06T06:40:10.665Z,8.62
2022-11-06T06:42:38.327Z,8.64
2022-11-06T06:45:05.957Z,8.64
2022-11-06T06:47:33.936Z,8.66
2022-11-06T06:50:01.971Z,8.66
2022-11-06T06:52:32.291Z,8.67
2022-11-06T06:54:59.872Z,8.68
2022-11-06T06:57:27.511Z,8.69
2022-11-06T06:59:55.450Z,8.70
2022-11-06T07:02:23.133Z,8.71
2022-11-06T07:04:50.748Z,8.71
2022-11-06T07:07:18.312Z,8.72
2022-11-06T07:09:45.847Z,8.76
2022-11-06T07:12:13.785Z,8.77
2022-11-06T07:14:41.891Z,8.79
2022-11-06T07:17:10.384Z,8.83
2022-11-06T07:19:38.003Z,8.85
2022-11-06T07:22:05.594Z,8.87
2022-11-06T07:24:33.608Z,8.90
2022-11-06T07:27:01.203Z,8.95
2022-11-06T07:29:28.899Z,8.97
2022-11-06T07:31:56.534Z,9.00
2022-11-06T07:34:24.683Z,9.04
2022-11-06T07:36:52.290Z,9.07
2022-11-06T07:39:19.885Z,9.11
2022-11-06T07:41:49.545Z,9.12
2022-11-06T07:44:17.124Z,9.15
2022-11-06T07:46:44.778Z,9.14
2022-11-06T07:49:12.838Z,9.17
2022-11-06T07:51:40.508Z,9.22
2022-11-06T07:54:08.085Z,9.27
2022-11-06T07:56:36.100Z,9.33
2022-11-06T07:59:03.723Z,9.44
2022-11-06T08:01:31.456Z,9.53
2022-11-06T08:03:59.246Z,9.61
2022-11-06T08:06:26.873Z,9.68
2022-11-06T08:08:58.739Z,9.74
2022-11-06T08:11:27.756Z,9.79
2022-11-06T08:13:55.351Z,9.81
2022-11-06T08:16:23.685Z,9.88
2022-11-06T08:18:51.797Z,9.94
2022-11-06T08:21:19.598Z,10.01
2022-11-06T08:23:47.298Z,10.08
2022-11-06T08:26:15.298Z,10.13
2022-11-06T08:28:43.135Z,10.20
2022-11-06T08:31:12.806Z,10.24
2022-11-06T08:33:40.556Z,10.27
2022-11-06T08:36:08.225Z,10.31
2022-11-06T08:38:36.755Z,10.36
2022-11-06T08:41:04.443Z,10.40
2022-11-06T08:43:33.251Z,10.43
2022-11-06T08:46:00.840Z,10.45
2022-11-06T08:48:28.505Z,10.48
2022-11-06T08:50:56.522Z,10.50
2022-11-06T08:53:24.255Z,10.52
2022-11-06T08:55:52.871Z,10.55
2022-11-06T08:58:20.761Z,10.58
2022-11-06T09:00:48.679Z,10.62
2022-11-06T09:03:18.365Z,10.63
2022-11-06T09:05:46.225Z,10.66
2022-11-06T09:08:14.102Z,10.68
2022-11-06T09:10:41.803Z,10.72
2022-11-06T09:13:09.671Z,10.75
2022-11-06T09:15:37.898Z,10.80
2022-11-06T09:18:05.721Z,10.85
2022-11-06T09:20:33.415Z,10.94
2022-11-06T09:23:01.259Z,11.06
2022-11-06T09:25:29.470Z,11.19
2022-11-06T09:27:59.499Z,11.32
2022-11-06T09:30:27.722Z,11.43
2022-11-06T09:32:57.868Z,11.56
2022-11-06T09:35:25.772Z,11.68
2022-11-06T09:37:53.489Z,11.77
2022-11-06T09:40:21.858Z,11.88
2022-11-06T09:42:49.717Z,12.00
2022-11-06T09:45:22.903Z,12.25
2022-11-06T09:47:50.783Z,12.73
2022-11-06T09:50:18.623Z,12.99
2022-11-06T09:52:46.813Z,13.21
2022-11-06T09:55:14.902Z,13.36
2022-11-06T09:57:43.873Z,13.30
2022-11-06T10:00:11.674Z,13.36
2022-11-06T10:02:39.476Z,13.40
2022-11-06T10:05:07.645Z,13.37
2022-11-06T10:07:35.576Z,13.29
2022-11-06T10:10:03.287Z,13.19
2022-11-06T10:12:31.172Z,13.24
2022-11-06T10:14:58.913Z,13.34
2022-11-06T10:17:27.005Z,13.49
2022-11-06T10:19:54.876Z,13.55
2022-11-06T10:22:22.874Z,13.49
2022-11-06T10:24:50.838Z,13.42
2022-11-06T10:27:18.677Z,13.36
2022-11-06T10:29:46.947Z,13.33
2022-11-06T10:32:14.685Z,13.30
2022-11-06T10:34:42.585Z,13.31
2022-11-06T10:37:10.468Z,13.36
2022-11-06T10:39:38.278Z,13.38
2022-11-06T10:42:06.799Z,13.39
2022-11-06T10:44:34.745Z,13.43
2022-11-06T10:47:02.618Z,13.46
2022-11-06T10:49:30.904Z,13.52
2022-11-06T10:51:58.738Z,13.89
2022-11-06T10:54:26.902Z,14.19
2022-11-06T10:56:54.734Z,14.30
2022-11-06T10:59:22.702Z,14.27
2022-11-06T11:01:50.779Z,14.30
2022-11-06T11:04:18.773Z,14.24
2022-11-06T11:06:47.495Z,14.11
2022-11-06T11:09:15.455Z,14.03
2022-11-06T11:11:44.612Z,14.00
2022-11-06T11:14:12.526Z,13.99
2022-11-06T11:16:40.937Z,14.00
2022-11-06T11:19:09.328Z,14.00
2022-11-06T11:21:37.325Z,13.97
2022-11-06T11:24:06.007Z,13.97
2022-11-06T11:26:33.859Z,14.01
2022-11-06T11:29:01.729Z,14.01
2022-11-06T11:31:29.966Z,13.99
2022-11-06T11:33:58.259Z,13.92
2022-11-06T11:36:28.945Z,13.82
2022-11-06T11:38:56.858Z,13.74
2022-11-06T11:41:24.662Z,13.72
2022-11-06T11:43:53.020Z,13.80
2022-11-06T11:46:21.099Z,13.86
2022-11-06T11:48:48.839Z,13.89
2022-11-06T11:51:16.803Z,13.91
2022-11-06T11:53:44.553Z,13.93
2022-11-06T11:56:13.056Z,13.94
2022-11-06T11:58:40.901Z,13.94
2022-11-06T12:01:11.109Z,13.98
2022-11-06T12:03:38.994Z,13.98
2022-11-06T12:06:06.855Z,13.94
2022-11-06T12:08:35.344Z,13.90
2022-11-06T12:11:03.193Z,13.83
2022-11-06T12:13:32.075Z,13.80
2022-11-06T12:16:00.056Z,13.78
2022-11-06T12:18:28.382Z,13.74
2022-11-06T12:20:56.933Z,13.75
2022-11-06T12:23:24.910Z,13.69
2022-11-06T12:25:54.952Z,13.65
2022-11-06T12:28:22.776Z,13.61
2022-11-06T12:30:50.675Z,13.60
2022-11-06T12:33:18.893Z,13.62
2022-11-06T12:35:47.442Z,13.64
2022-11-06T12:38:15.575Z,13.63
2022-11-06T12:40:43.736Z,13.68
2022-11-06T12:43:12.060Z,13.70
2022-11-06T12:45:40.532Z,13.68
2022-11-06T12:48:08.365Z,13.60
2022-11-06T12:50:37.294Z,13.55
2022-11-06T12:53:06.501Z,13.54
2022-11-06T12:55:34.516Z,13.50
2022-11-06T12:58:04.187Z,13.49
2022-11-06T13:00:32.140Z,13.50
2022-11-06T13:03:00.530Z,13.47
2022-11-06T13:05:28.574Z,13.44
2022-11-06T13:07:56.387Z,13.44
2022-11-06T13:10:24.387Z,13.41
2022-11-06T13:12:52.278Z,13.39
2022-11-06T13:15:22.367Z,13.32
2022-11-06T13:17:50.190Z,13.27
2022-11-06T13:20:18.077Z,13.21
2022-11-06T13:22:46.511Z,13.16
2022-11-06T13:25:14.793Z,13.10
2022-11-06T13:27:42.777Z,13.06
2022-11-06T13:30:10.658Z,13.02
2022-11-06T13:32:38.379Z,12.95
2022-11-06T13:35:06.374Z,12.91
2022-11-06T13:37:34.197Z,12.89
2022-11-06T13:40:04.590Z,12.88
2022-11-06T13:42:32.520Z,12.87
2022-11-06T13:45:00.466Z,12.87
2022-11-06T13:47:29.474Z,12.89
2022-11-06T13:49:57.418Z,12.92
2022-11-06T13:52:28.077Z,12.97
2022-11-06T13:54:55.889Z,13.01
2022-11-06T13:57:23.760Z,13.03
2022-11-06T13:59:51.895Z,13.02
2022-11-06T14:02:19.886Z,13.01
2022-11-06T14:04:52.482Z,13.01
2022-11-06T14:07:21.362Z,12.99
2022-11-06T14:09:49.398Z,12.96
2022-11-06T14:12:17.529Z,12.93
2022-11-06T14:14:45.369Z,12.91
2022-11-06T14:17:13.293Z,12.88
2022-11-06T14:19:43.102Z,12.86
2022-11-06T14:22:12.933Z,12.83
2022-11-06T14:24:40.910Z,12.81
2022-11-06T14:27:09.271Z,12.80
2022-11-06T14:29:37.607Z,12.76
2022-11-06T14:32:06.822Z,12.75
2022-11-06T14:34:34.811Z,12.74
2022-11-06T14:37:02.643Z,12.73
2022-11-06T14:39:30.501Z,12.71
2022-11-06T14:41:58.259Z,12.71
2022-11-06T14:44:26.149Z,12.72
2022-11-06T14:46:53.971Z,12.72
2022-11-06T14:49:21.857Z,12.71
2022-11-06T14:51:50.017Z,12.69
2022-11-06T14:54:17.991Z,12.67
2022-11-06T14:56:45.743Z,12.64
2022-11-06T14:59:13.636Z,12.62
2022-11-06T15:01:42.010Z,12.57
2022-11-06T15:04:09.903Z,12.53
2022-11-06T15:06:39.369Z,12.49
2022-11-06T15:09:07.304Z,12.46
2022-11-06T15:11:35.156Z,12.41
2022-11-06T15:14:08.867Z,12.37
2022-11-06T15:16:40.974Z,12.33
2022-11-06T15:19:10.584Z,12.32
2022-11-06T15:21:38.493Z,12.34
2022-11-06T15:24:06.810Z,12.34
2022-11-06T15:26:34.624Z,12.32
2022-11-06T15:29:04.128Z,12.30
2022-11-06T15:31:32.030Z,12.28
2022-11-06T15:33:59.956Z,12.25
2022-11-06T15:36:28.209Z,12.21
2022-11-06T15:38:56.012Z,12.16
2022-11-06T15:41:25.021Z,12.13
2022-11-06T15:43:55.189Z,12.08
2022-11-06T15:46:23.165Z,12.07
2022-11-06T15:48:51.442Z,12.04
2022-11-06T15:51:19.210Z,12.03
2022-11-06T15:53:47.412Z,12.04
2022-11-06T15:56:15.836Z,12.02
2022-11-06T15:58:43.623Z,11.99
2022-11-06T16:01:12.075Z,11.95
2022-11-06T16:03:40.091Z,11.94
2022-11-06T16:06:10.121Z,11.93
2022-11-06T16:08:38.132Z,11.93
2022-11-06T16:11:10.731Z,11.90
2022-11-06T16:13:41.625Z,11.89
2022-11-06T16:16:11.141Z,11.86
2022-11-06T16:18:39.176Z,11.84
2022-11-06T16:21:07.151Z,11.79
2022-11-06T16:23:39.052Z,11.72
2022-11-06T16:26:07.768Z,11.68
2022-11-06T16:28:36.748Z,11.61
2022-11-06T16:31:04.558Z,11.49
2022-11-06T16:33:32.434Z,11.31
2022-11-06T16:36:00.269Z,11.09
2022-11-06T16:38:40.372Z,10.89
2022-11-06T16:41:10.529Z,10.75
2022-11-06T16:43:38.451Z,10.69
2022-11-06T16:46:08.123Z,10.65
2022-11-06T16:48:38.820Z,10.65
2022-11-06T16:51:07.322Z,10.67
2022-11-06T16:53:37.675Z,10.66
2022-11-06T16:56:05.773Z,10.62
2022-11-06T16:58:33.996Z,10.50
2022-11-06T17:01:02.521Z,10.36
2022-11-06T17:03:30.668Z,10.20
2022-11-06T17:05:58.553Z,10.08
2022-11-06T17:08:26.382Z,10.01
2022-11-06T17:10:54.250Z,9.96
2022-11-06T17:13:22.814Z,9.96
2022-11-06T17:15:50.633Z,9.97
2022-11-06T17:18:19.839Z,9.99
2022-11-06T17:20:48.763Z,9.99
2022-11-06T17:23:16.926Z,10.00
2022-11-06T17:25:45.442Z,10.04
2022-11-06T17:28:13.228Z,10.07
2022-11-06T17:30:42.847Z,10.10
2022-11-06T17:33:11.110Z,10.12
2022-11-06T17:35:39.562Z,10.13
2022-11-06T17:38:07.935Z,10.15
2022-11-06T17:40:35.984Z,10.16
2022-11-06T17:43:04.070Z,10.18
2022-11-06T17:45:32.089Z,10.21
2022-11-06T17:48:00.036Z,10.22
2022-11-06T17:50:28.372Z,10.22
2022-11-06T17:52:56.169Z,10.23
2022-11-06T17:55:25.865Z,10.22
2022-11-06T17:57:53.740Z,10.22
2022-11-06T18:00:23.169Z,10.23
2022-11-06T18:03:02.999Z,10.26
2022-11-06T18:05:31.318Z,10.26
2022-11-06T18:07:59.267Z,10.26
2022-11-06T18:10:30.443Z,10.26
2022-11-06T18:12:58.566Z,10.26
2022-11-06T18:15:26.499Z,10.26
2022-11-06T18:17:54.459Z,10.26
2022-11-06T18:20:22.307Z,10.25
2022-11-06T18:22:50.228Z,10.25
2022-11-06T18:25:18.935Z,10.23
2022-11-06T18:27:46.733Z,10.23
2022-11-06T18:30:16.682Z,10.22
2022-11-06T18:32:44.537Z,10.22
2022-11-06T18:35:12.939Z,10.20
2022-11-06T18:37:41.091Z,10.21
2022-11-06T18:40:08.905Z,10.21
2022-11-06T18:42:36.870Z,10.24
2022-11-06T18:45:04.858Z,10.26
2022-11-06T18:47:33.240Z,10.29
2022-11-06T18:50:01.416Z,10.32
2022-11-06T18:52:55.669Z,10.34
2022-11-06T18:55:19.691Z,10.37
2022-11-06T18:57:47.584Z,10.41
2022-11-06T19:00:15.706Z,10.47
2022-11-06T19:02:43.676Z,10.51
2022-11-06T19:05:11.624Z,10.58
2022-11-06T19:07:40.798Z,10.62
2022-11-06T19:10:08.840Z,10.63
2022-11-06T19:12:37.253Z,10.65
2022-11-06T19:15:05.208Z,10.65
2022-11-06T19:17:33.059Z,10.67
2022-11-06T19:20:01.823Z,10.67
2022-11-06T19:22:31.143Z,10.67
2022-11-06T19:24:59.053Z,10.69
2022-11-06T19:27:26.976Z,10.70
2022-11-06T19:29:55.256Z,10.70
2022-11-06T19:32:25.540Z,10.68
2022-11-06T19:34:53.474Z,10.63
2022-11-06T19:37:21.709Z,10.61
2022-11-06T19:39:49.521Z,10.62
2022-11-06T19:42:17.494Z,10.62
2022-11-06T19:44:46.825Z,10.63
2022-11-06T19:47:14.695Z,10.63
2022-11-06T19:49:42.945Z,10.67
2022-11-06T19:52:41.995Z,10.70
2022-11-06T19:55:26.555Z,10.74
2022-11-06T19:57:51.149Z,10.78
2022-11-06T20:00:19.375Z,10.78
2022-11-06T20:02:47.300Z,10.80
2022-11-06T20:05:17.289Z,10.82
2022-11-06T20:07:45.121Z,10.85
2022-11-06T20:10:13.009Z,10.85
2022-11-06T20:12:41.603Z,10.85
2022-11-06T20:15:09.572Z,10.89
2022-11-06T20:17:40.314Z,10.91
2022-11-06T20:20:08.209Z,10.91
2022-11-06T20:22:36.193Z,10.94
2022-11-06T20:25:04.164Z,10.96
2022-11-06T20:27:31.979Z,10.97
2022-11-06T20:30:00.050Z,10.97
2022-11-06T20:32:27.877Z,10.97
2022-11-06T20:34:56.150Z,10.97
2022-11-06T20:37:24.624Z,10.99
2022-11-06T20:39:52.592Z,10.99
2022-11-06T20:42:20.446Z,10.98
2022-11-06T20:44:48.361Z,10.99
2022-11-06T20:47:16.143Z,10.98
2022-11-06T20:49:44.773Z,10.95
2022-11-06T20:52:14.330Z,10.92
2022-11-06T20:54:47.542Z,10.90
2022-11-06T20:57:16.022Z,10.91
2022-11-06T20:59:43.999Z,10.93
2022-11-06T21:02:12.277Z,10.93
2022-11-06T21:04:40.361Z,10.94
2022-11-06T21:07:10.186Z,10.94
2022-11-06T21:09:37.981Z,10.95
2022-11-06T21:12:05.883Z,10.96
2022-11-06T21:14:33.984Z,10.95
2022-11-06T21:17:02.547Z,10.94
2022-11-06T21:19:35.420Z,10.92
2022-11-06T21:22:03.222Z,10.92
2022-11-06T21:24:31.158Z,10.91
2022-11-06T21:26:59.461Z,10.93
2022-11-06T21:29:27.384Z,10.94
2022-11-06T21:31:55.203Z,10.96
2022-11-06T21:34:22.984Z,10.97
2022-11-06T21:36:50.728Z,10.97
2022-11-06T21:39:18.886Z,10.96
2022-11-06T21:41:46.793Z,10.93
2022-11-06T21:44:15.935Z,10.90
2022-11-06T21:46:45.643Z,10.82
2022-11-06T21:49:14.054Z,10.72
2022-11-06T21:51:42.169Z,10.72
2022-11-06T21:54:27.436Z,10.76
2022-11-06T21:56:55.240Z,10.81
2022-11-06T21:59:23.146Z,10.84
2022-11-06T22:01:51.647Z,10.88
2022-11-06T22:04:19.587Z,10.93
2022-11-06T22:06:47.491Z,10.97
2022-11-06T22:09:16.613Z,11.01
2022-11-06T22:11:46.189Z,11.04
2022-11-06T22:14:14.492Z,11.03
2022-11-06T22:16:42.235Z,11.03
2022-11-06T22:19:09.968Z,11.04
2022-11-06T22:21:39.262Z,11.05
2022-11-06T22:24:07.482Z,11.05
2022-11-06T22:26:35.176Z,11.08
2022-11-06T22:29:03.036Z,11.07
2022-11-06T22:31:30.792Z,11.08
2022-11-06T22:34:00.603Z,11.08
2022-11-06T22:36:28.244Z,11.07
2022-11-06T22:38:56.293Z,11.08
2022-11-06T22:41:23.940Z,11.08
2022-11-06T22:43:51.621Z,11.07
2022-11-06T22:46:20.275Z,11.06
2022-11-06T22:48:48.327Z,11.01
2022-11-06T22:51:16.313Z,10.98
2022-11-06T22:53:44.044Z,10.96
2022-11-06T22:56:12.664Z,10.95
2022-11-06T22:58:42.470Z,10.98
2022-11-06T23:01:10.254Z,10.99
2022-11-06T23:03:38.306Z,10.99
2022-11-06T23:06:05.938Z,10.97
2022-11-06T23:08:33.619Z,10.95
2022-11-06T23:11:02.380Z,10.95
2022-11-06T23:13:29.934Z,10.93
2022-11-06T23:15:57.976Z,10.92
2022-11-06T23:18:25.605Z,10.93
2022-11-06T23:20:53.281Z,10.98
2022-11-06T23:23:20.950Z,11.04
2022-11-06T23:25:48.534Z,11.10
2022-11-06T23:28:16.877Z,11.14
2022-11-06T23:30:44.526Z,11.18
2022-11-06T23:33:12.439Z,11.23
2022-11-06T23:35:40.300Z,11.28
2022-11-06T23:38:08.016Z,11.29
2022-11-06T23:40:35.995Z,11.31
2022-11-06T23:43:03.566Z,11.34
2022-11-06T23:45:44.960Z,11.39
2022-11-06T23:48:13.574Z,11.40
2022-11-06T23:50:41.569Z,11.44
2022-11-06T23:53:09.249Z,11.43
2022-11-06T23:55:36.862Z,11.41
2022-11-06T23:58:04.849Z,11.39
